createdAt,value
2016-05-07T00:00:37.781Z,996.21
2016-05-07T00:01:37.783Z,996.24
2016-05-07T00:02:37.801Z,996.25
2016-05-07T00:03:37.820Z,996.2
2016-05-07T00:04:37.791Z,996.2
2016-05-07T00:05:37.840Z,996.23
2016-05-07T00:06:37.812Z,996.19
2016-05-07T00:07:37.815Z,996.2
2016-05-07T00:08:37.833Z,996.19
2016-05-07T00:09:37.820Z,996.18
2016-05-07T00:10:37.853Z,996.13
2016-05-07T00:11:37.826Z,996.18
2016-05-07T00:12:37.844Z,996.14
2016-05-07T00:13:37.830Z,996.17
2016-05-07T00:14:37.850Z,996.14
2016-05-07T00:15:37.852Z,996.12
2016-05-07T00:16:37.869Z,996.12
2016-05-07T00:18:37.860Z,996.07
2016-05-07T00:19:37.863Z,996.06
2016-05-07T00:20:37.866Z,996.06
2016-05-07T00:21:37.883Z,996.03
2016-05-07T00:22:38.090Z,996.03
2016-05-07T00:23:37.888Z,996.02
2016-05-07T00:24:37.891Z,996.02
2016-05-07T00:25:37.894Z,996.03
2016-05-07T00:26:37.913Z,996.04
2016-05-07T00:27:37.915Z,996.03
2016-05-07T00:28:37.918Z,996.04
2016-05-07T00:29:37.920Z,996.07
2016-05-07T00:30:37.924Z,996.04
2016-05-07T00:31:37.926Z,996.03
2016-05-07T00:32:37.929Z,996.04
2016-05-07T00:33:37.931Z,996.05
2016-05-07T00:34:37.950Z,996.03
2016-05-07T00:36:37.955Z,996.02
2016-05-07T00:37:38.162Z,996.03
2016-05-07T00:38:37.961Z,996.04
2016-05-07T00:39:37.964Z,996.01
2016-05-07T00:40:37.981Z,996.03
2016-05-07T00:41:38.422Z,996.02
2016-05-07T00:42:37.986Z,996.03
2016-05-07T00:43:38.005Z,996.03
2016-05-07T00:44:38.008Z,996.02
2016-05-07T00:45:38.027Z,996.01
2016-05-07T00:46:38.200Z,996
2016-05-07T00:47:38.250Z,996.05
2016-05-07T00:48:38.019Z,996.03
2016-05-07T00:49:38.052Z,996.03
2016-05-07T00:50:38.024Z,996.03
2016-05-07T00:51:38.027Z,996.03
2016-05-07T00:52:38.029Z,996
2016-05-07T00:53:38.048Z,996.02
2016-05-07T00:54:38.051Z,996
2016-05-07T00:55:38.054Z,996.01
2016-05-07T00:56:38.041Z,996.02
2016-05-07T00:57:38.058Z,995.98
2016-05-07T00:58:38.062Z,995.97
2016-05-07T00:59:38.064Z,995.98
2016-05-07T01:00:38.067Z,995.99
2016-05-07T01:01:38.084Z,995.96
2016-05-07T01:02:38.072Z,995.97
2016-05-07T01:03:38.075Z,995.96
2016-05-07T01:04:38.093Z,995.92
2016-05-07T01:05:38.081Z,995.93
2016-05-07T01:06:38.098Z,995.93
2016-05-07T01:07:38.101Z,995.91
2016-05-07T01:08:38.338Z,995.96
2016-05-07T01:09:38.106Z,995.94
2016-05-07T01:10:38.109Z,995.96
2016-05-07T01:11:38.112Z,995.94
2016-05-07T01:12:38.130Z,995.94
2016-05-07T01:13:38.133Z,995.89
2016-05-07T01:14:38.136Z,995.87
2016-05-07T01:15:38.138Z,995.89
2016-05-07T01:16:38.141Z,995.87
2016-05-07T01:17:38.144Z,995.93
2016-05-07T01:18:38.146Z,995.92
2016-05-07T01:19:38.149Z,995.91
2016-05-07T01:20:38.166Z,995.91
2016-05-07T01:21:38.170Z,995.94
2016-05-07T01:22:38.172Z,995.95
2016-05-07T01:23:38.175Z,995.97
2016-05-07T01:24:38.209Z,995.94
2016-05-07T01:25:38.181Z,995.91
2016-05-07T01:26:38.182Z,995.93
2016-05-07T01:27:38.186Z,995.92
2016-05-07T01:28:38.205Z,995.94
2016-05-07T01:29:38.191Z,995.91
2016-05-07T01:30:38.209Z,995.94
2016-05-07T01:31:38.213Z,995.93
2016-05-07T01:32:38.215Z,995.95
2016-05-07T01:33:38.218Z,995.88
2016-05-07T01:35:38.223Z,995.95
2016-05-07T01:36:38.226Z,995.95
2016-05-07T01:37:38.228Z,995.98
2016-05-07T01:38:38.231Z,996.01
2016-05-07T01:39:38.250Z,995.99
2016-05-07T01:40:38.253Z,995.94
2016-05-07T01:41:38.248Z,995.99
2016-05-07T01:42:38.255Z,995.98
2016-05-07T01:43:38.273Z,995.94
2016-05-07T01:44:38.257Z,995.96
2016-05-07T01:45:38.290Z,995.94
2016-05-07T01:46:38.277Z,995.95
2016-05-07T01:47:38.296Z,995.96
2016-05-07T01:48:38.298Z,995.92
2016-05-07T01:49:38.488Z,995.91
2016-05-07T01:50:38.288Z,995.93
2016-05-07T01:51:38.322Z,995.89
2016-05-07T01:52:38.292Z,995.86
2016-05-07T01:53:38.296Z,995.86
2016-05-07T01:54:38.314Z,995.86
2016-05-07T01:55:38.317Z,995.87
2016-05-07T01:56:38.320Z,995.85
2016-05-07T01:57:38.666Z,995.81
2016-05-07T01:58:38.325Z,995.86
2016-05-07T01:59:38.344Z,995.87
2016-05-07T02:00:38.330Z,995.88
2016-05-07T02:01:38.333Z,995.85
2016-05-07T02:02:38.336Z,995.87
2016-05-07T02:03:38.338Z,995.86
2016-05-07T02:04:38.341Z,995.86
2016-05-07T02:05:38.360Z,995.87
2016-05-07T02:06:38.363Z,995.88
2016-05-07T02:07:38.365Z,995.86
2016-05-07T02:08:38.383Z,995.88
2016-05-07T02:09:38.370Z,995.83
2016-05-07T02:10:38.373Z,995.87
2016-05-07T02:11:38.391Z,995.87
2016-05-07T02:12:38.582Z,995.85
2016-05-07T02:13:38.396Z,995.86
2016-05-07T02:14:38.384Z,995.86
2016-05-07T02:15:38.386Z,995.83
2016-05-07T02:16:38.405Z,995.8
2016-05-07T02:17:38.407Z,995.83
2016-05-07T02:18:38.410Z,995.81
2016-05-07T02:19:38.412Z,995.8
2016-05-07T02:20:38.415Z,995.8
2016-05-07T02:21:38.417Z,995.77
2016-05-07T02:22:38.421Z,995.79
2016-05-07T02:23:38.423Z,995.79
2016-05-07T02:24:38.429Z,995.78
2016-05-07T02:25:38.448Z,995.79
2016-05-07T02:27:38.859Z,995.79
2016-05-07T02:28:38.456Z,995.8
2016-05-07T02:29:38.459Z,995.81
2016-05-07T02:30:38.476Z,995.83
2016-05-07T02:31:38.463Z,995.82
2016-05-07T02:32:38.466Z,995.8
2016-05-07T02:33:38.470Z,995.79
2016-05-07T02:34:38.472Z,995.8
2016-05-07T02:35:38.475Z,995.78
2016-05-07T02:36:38.477Z,995.79
2016-05-07T02:37:38.682Z,995.74
2016-05-07T02:38:38.483Z,995.75
2016-05-07T02:39:38.486Z,995.73
2016-05-07T02:40:38.503Z,995.73
2016-05-07T02:41:38.522Z,995.75
2016-05-07T02:42:39.727Z,995.73
2016-05-07T02:43:38.511Z,995.69
2016-05-07T02:44:38.514Z,995.71
2016-05-07T02:45:38.517Z,995.75
2016-05-07T02:46:38.519Z,995.75
2016-05-07T02:47:38.522Z,995.79
2016-05-07T02:48:38.524Z,995.77
2016-05-07T02:49:38.527Z,995.78
2016-05-07T02:50:38.530Z,995.82
2016-05-07T02:51:38.533Z,995.81
2016-05-07T02:52:38.535Z,995.84
2016-05-07T02:53:38.538Z,995.81
2016-05-07T02:54:38.541Z,995.76
2016-05-07T02:55:38.559Z,995.81
2016-05-07T02:56:38.562Z,995.77
2016-05-07T02:57:38.878Z,995.74
2016-05-07T02:58:38.567Z,995.74
2016-05-07T02:59:38.570Z,995.75
2016-05-07T03:00:38.589Z,995.72
2016-05-07T03:01:38.559Z,995.74
2016-05-07T03:02:38.562Z,995.76
2016-05-07T03:03:38.815Z,995.77
2016-05-07T03:04:38.600Z,995.81
2016-05-07T03:05:38.586Z,995.8
2016-05-07T03:06:38.589Z,995.8
2016-05-07T03:07:38.591Z,995.8
2016-05-07T03:08:38.594Z,995.81
2016-05-07T03:09:38.613Z,995.79
2016-05-07T03:10:38.600Z,995.81
2016-05-07T03:11:38.618Z,995.77
2016-05-07T03:13:38.607Z,995.81
2016-05-07T03:14:38.814Z,995.78
2016-05-07T03:15:38.613Z,995.79
2016-05-07T03:16:38.616Z,995.79
2016-05-07T03:17:38.618Z,995.84
2016-05-07T03:18:38.621Z,995.8
2016-05-07T03:19:38.623Z,995.85
2016-05-07T03:20:38.627Z,995.85
2016-05-07T03:21:38.629Z,995.87
2016-05-07T03:22:38.648Z,995.85
2016-05-07T03:23:38.650Z,995.87
2016-05-07T03:24:38.654Z,995.82
2016-05-07T03:25:38.656Z,995.87
2016-05-07T03:26:38.674Z,995.85
2016-05-07T03:27:38.754Z,995.81
2016-05-07T03:28:38.867Z,995.85
2016-05-07T03:29:38.666Z,995.83
2016-05-07T03:30:38.670Z,995.78
2016-05-07T03:31:38.672Z,995.79
2016-05-07T03:32:38.690Z,995.83
2016-05-07T03:33:38.692Z,995.81
2016-05-07T03:34:38.696Z,995.82
2016-05-07T03:35:38.698Z,995.8
2016-05-07T03:36:38.686Z,995.88
2016-05-07T03:37:38.688Z,995.86
2016-05-07T03:38:38.691Z,995.87
2016-05-07T03:39:38.693Z,995.83
2016-05-07T03:40:38.697Z,995.86
2016-05-07T03:41:38.699Z,995.88
2016-05-07T03:42:38.701Z,995.9
2016-05-07T03:43:38.704Z,995.89
2016-05-07T03:44:38.707Z,995.87
2016-05-07T03:45:38.710Z,995.88
2016-05-07T03:46:38.713Z,995.86
2016-05-07T03:47:38.715Z,995.87
2016-05-07T03:48:38.733Z,995.88
2016-05-07T03:49:38.752Z,995.91
2016-05-07T03:50:38.723Z,995.89
2016-05-07T03:51:38.726Z,995.89
2016-05-07T03:52:38.743Z,995.92
2016-05-07T03:53:38.762Z,995.91
2016-05-07T03:54:38.765Z,995.92
2016-05-07T03:55:38.767Z,995.95
2016-05-07T03:56:38.990Z,995.93
2016-05-07T03:57:38.757Z,995.9
2016-05-07T03:58:38.760Z,995.97
2016-05-07T03:59:38.762Z,995.92
2016-05-07T04:00:38.781Z,995.91
2016-05-07T04:01:38.784Z,995.92
2016-05-07T04:02:38.770Z,995.96
2016-05-07T04:03:38.773Z,995.95
2016-05-07T04:04:38.776Z,995.92
2016-05-07T04:05:38.779Z,995.93
2016-05-07T04:06:39.000Z,995.97
2016-05-07T04:07:38.784Z,996.05
2016-05-07T04:08:39.022Z,995.99
2016-05-07T04:09:38.805Z,996.02
2016-05-07T04:10:38.792Z,996.01
2016-05-07T04:11:38.795Z,996
2016-05-07T04:12:38.797Z,996
2016-05-07T04:13:38.816Z,996.03
2016-05-07T04:14:38.803Z,995.98
2016-05-07T04:15:38.805Z,996.01
2016-05-07T04:16:38.840Z,996
2016-05-07T04:17:38.843Z,996.02
2016-05-07T04:18:38.846Z,996.01
2016-05-07T04:19:38.832Z,996.02
2016-05-07T04:20:38.835Z,995.98
2016-05-07T04:21:38.837Z,996.02
2016-05-07T04:22:38.840Z,996
2016-05-07T04:23:38.843Z,996.06
2016-05-07T04:24:38.846Z,996.05
2016-05-07T04:25:38.848Z,996.06
2016-05-07T04:26:38.851Z,996.06
2016-05-07T04:27:39.213Z,996.09
2016-05-07T04:28:38.856Z,996.06
2016-05-07T04:29:38.875Z,996.09
2016-05-07T04:30:39.081Z,996.04
2016-05-07T04:31:38.880Z,996.08
2016-05-07T04:32:38.883Z,996.12
2016-05-07T04:33:39.089Z,996.13
2016-05-07T04:34:38.919Z,996.1
2016-05-07T04:35:38.923Z,996.13
2016-05-07T04:36:38.909Z,996.1
2016-05-07T04:37:38.896Z,996.14
2016-05-07T04:38:38.915Z,996.12
2016-05-07T04:39:38.902Z,996.15
2016-05-07T04:40:38.904Z,996.14
2016-05-07T04:41:38.922Z,996.12
2016-05-07T04:43:38.928Z,996.23
2016-05-07T04:44:38.946Z,996.19
2016-05-07T04:45:38.949Z,996.15
2016-05-07T04:47:38.939Z,996.15
2016-05-07T04:48:38.957Z,996.15
2016-05-07T04:49:38.944Z,996.19
2016-05-07T04:50:38.963Z,996.19
2016-05-07T04:51:38.949Z,996.18
2016-05-07T04:52:38.968Z,996.19
2016-05-07T04:53:38.970Z,996.2
2016-05-07T04:54:38.973Z,996.22
2016-05-07T04:55:38.976Z,996.21
2016-05-07T04:56:38.979Z,996.19
2016-05-07T04:57:38.996Z,996.23
2016-05-07T04:58:38.999Z,996.24
2016-05-07T04:59:39.002Z,996.22
2016-05-07T05:00:38.990Z,996.23
2016-05-07T05:01:39.007Z,996.22
2016-05-07T05:02:39.010Z,996.24
2016-05-07T05:03:39.044Z,996.25
2016-05-07T05:05:39.018Z,996.24
2016-05-07T05:06:39.036Z,996.24
2016-05-07T05:07:39.445Z,996.23
2016-05-07T05:08:39.261Z,996.23
2016-05-07T05:09:39.045Z,996.25
2016-05-07T05:10:39.048Z,996.25
2016-05-07T05:11:39.050Z,996.24
2016-05-07T05:12:39.084Z,996.24
2016-05-07T05:13:39.071Z,996.26
2016-05-07T05:14:39.074Z,996.23
2016-05-07T05:15:39.077Z,996.22
2016-05-07T05:16:39.080Z,996.21
2016-05-07T05:17:39.097Z,996.24
2016-05-07T05:18:39.085Z,996.25
2016-05-07T05:19:39.103Z,996.28
2016-05-07T05:20:39.121Z,996.31
2016-05-07T05:21:39.109Z,996.29
2016-05-07T05:22:39.111Z,996.29
2016-05-07T05:23:39.113Z,996.3
2016-05-07T05:24:39.116Z,996.31
2016-05-07T05:25:39.119Z,996.33
2016-05-07T05:26:39.137Z,996.34
2016-05-07T05:27:39.171Z,996.39
2016-05-07T05:28:39.143Z,996.36
2016-05-07T05:29:39.162Z,996.4
2016-05-07T05:30:39.179Z,996.4
2016-05-07T05:31:39.182Z,996.4
2016-05-07T05:32:39.185Z,996.42
2016-05-07T05:33:39.172Z,996.45
2016-05-07T05:34:39.175Z,996.44
2016-05-07T05:35:39.209Z,996.44
2016-05-07T05:36:39.180Z,996.45
2016-05-07T05:37:39.183Z,996.48
2016-05-07T05:38:39.201Z,996.46
2016-05-07T05:39:39.203Z,996.45
2016-05-07T05:40:39.207Z,996.44
2016-05-07T05:41:39.209Z,996.45
2016-05-07T05:42:39.352Z,996.42
2016-05-07T05:43:39.231Z,996.44
2016-05-07T05:44:39.264Z,996.43
2016-05-07T05:45:39.236Z,996.46
2016-05-07T05:46:39.238Z,996.42
2016-05-07T05:47:39.241Z,996.43
2016-05-07T05:48:39.259Z,996.43
2016-05-07T05:49:39.261Z,996.4
2016-05-07T05:50:39.264Z,996.43
2016-05-07T05:51:39.267Z,996.45
2016-05-07T05:52:39.286Z,996.46
2016-05-07T05:53:39.288Z,996.47
2016-05-07T05:54:39.291Z,996.52
2016-05-07T05:55:39.294Z,996.47
2016-05-07T05:56:39.296Z,996.48
2016-05-07T05:57:39.580Z,996.52
2016-05-07T05:58:39.318Z,996.47
2016-05-07T05:59:39.321Z,996.44
2016-05-07T06:00:39.323Z,996.5
2016-05-07T06:01:39.326Z,996.5
2016-05-07T06:02:39.343Z,996.47
2016-05-07T06:03:39.346Z,996.47
2016-05-07T06:04:39.349Z,996.48
2016-05-07T06:05:39.352Z,996.49
2016-05-07T06:06:39.370Z,996.47
2016-05-07T06:07:39.389Z,996.45
2016-05-07T06:08:39.376Z,996.48
2016-05-07T06:09:39.379Z,996.44
2016-05-07T06:10:39.397Z,996.46
2016-05-07T06:11:39.399Z,996.49
2016-05-07T06:12:39.402Z,996.46
2016-05-07T06:13:39.420Z,996.45
2016-05-07T06:14:39.423Z,996.48
2016-05-07T06:15:39.442Z,996.48
2016-05-07T06:16:39.428Z,996.44
2016-05-07T06:17:39.447Z,996.47
2016-05-07T06:18:39.450Z,996.48
2016-05-07T06:19:39.453Z,996.46
2016-05-07T06:20:39.470Z,996.48
2016-05-07T06:21:39.473Z,996.48
2016-05-07T06:22:39.475Z,996.5
2016-05-07T06:23:39.478Z,996.48
2016-05-07T06:24:39.497Z,996.46
2016-05-07T06:25:39.718Z,996.48
2016-05-07T06:26:39.518Z,996.47
2016-05-07T06:27:39.849Z,996.46
2016-05-07T06:28:39.538Z,996.44
2016-05-07T06:29:39.526Z,996.43
2016-05-07T06:30:39.543Z,996.46
2016-05-07T06:31:39.562Z,996.46
2016-05-07T06:32:39.550Z,996.41
2016-05-07T06:33:39.552Z,996.44
2016-05-07T06:34:39.554Z,996.42
2016-05-07T06:35:39.590Z,996.48
2016-05-07T06:36:39.560Z,996.52
2016-05-07T06:37:39.595Z,996.46
2016-05-07T06:38:39.612Z,996.48
2016-05-07T06:40:39.615Z,996.47
2016-05-07T06:41:39.839Z,996.52
2016-05-07T06:42:39.714Z,996.54
2016-05-07T06:43:39.826Z,996.52
2016-05-07T06:44:39.828Z,996.53
2016-05-07T06:45:39.863Z,996.51
2016-05-07T06:46:39.662Z,996.54
2016-05-07T06:47:39.665Z,996.5
2016-05-07T06:48:39.653Z,996.51
2016-05-07T06:49:39.670Z,996.53
2016-05-07T06:50:39.673Z,996.54
2016-05-07T06:51:39.692Z,996.54
2016-05-07T06:52:39.694Z,996.52
2016-05-07T06:53:39.697Z,996.51
2016-05-07T06:54:39.700Z,996.49
2016-05-07T06:55:39.702Z,996.52
2016-05-07T06:56:39.721Z,996.5
2016-05-07T06:57:39.723Z,996.48
2016-05-07T06:58:39.742Z,996.49
2016-05-07T06:59:39.744Z,996.51
2016-05-07T07:00:39.746Z,996.47
2016-05-07T07:01:39.749Z,996.52
2016-05-07T07:02:39.768Z,996.51
2016-05-07T07:03:39.771Z,996.49
2016-05-07T07:04:39.790Z,996.5
2016-05-07T07:05:39.792Z,996.5
2016-05-07T07:06:39.810Z,996.53
2016-05-07T07:07:40.015Z,996.56
2016-05-07T07:08:39.816Z,996.53
2016-05-07T07:09:39.865Z,996.55
2016-05-07T07:10:39.836Z,996.55
2016-05-07T07:12:39.857Z,996.56
2016-05-07T07:13:39.876Z,996.57
2016-05-07T07:14:39.878Z,996.52
2016-05-07T07:15:39.897Z,996.55
2016-05-07T07:16:39.899Z,996.55
2016-05-07T07:17:40.106Z,996.51
2016-05-07T07:18:39.937Z,996.54
2016-05-07T07:19:40.126Z,996.51
2016-05-07T07:20:40.128Z,996.5
2016-05-07T07:21:39.928Z,996.53
2016-05-07T07:22:39.947Z,996.51
2016-05-07T07:23:39.950Z,996.52
2016-05-07T07:24:39.969Z,996.53
2016-05-07T07:25:39.971Z,996.52
2016-05-07T07:26:40.224Z,996.51
2016-05-07T07:27:39.991Z,996.52
2016-05-07T07:28:39.994Z,996.5
2016-05-07T07:29:40.012Z,996.53
2016-05-07T07:30:40.016Z,996.48
2016-05-07T07:31:40.034Z,996.46
2016-05-07T07:32:40.036Z,996.46
2016-05-07T07:33:40.038Z,996.51
2016-05-07T07:34:40.057Z,996.5
2016-05-07T07:35:40.076Z,996.49
2016-05-07T07:36:40.079Z,996.47
2016-05-07T07:37:40.097Z,996.47
2016-05-07T07:38:40.099Z,996.45
2016-05-07T07:39:40.118Z,996.44
2016-05-07T07:40:40.120Z,996.48
2016-05-07T07:41:40.123Z,996.45
2016-05-07T07:42:40.235Z,996.48
2016-05-07T07:43:40.145Z,996.44
2016-05-07T07:44:40.147Z,996.44
2016-05-07T07:45:40.384Z,996.43
2016-05-07T07:46:40.183Z,996.45
2016-05-07T07:47:40.217Z,996.47
2016-05-07T07:48:40.220Z,996.43
2016-05-07T07:49:40.239Z,996.44
2016-05-07T07:50:40.225Z,996.46
2016-05-07T07:51:40.244Z,996.47
2016-05-07T07:52:40.230Z,996.44
2016-05-07T07:53:40.250Z,996.45
2016-05-07T07:54:40.252Z,996.45
2016-05-07T07:55:40.270Z,996.48
2016-05-07T07:56:40.289Z,996.49
2016-05-07T07:57:40.291Z,996.49
2016-05-07T07:58:40.310Z,996.5
2016-05-07T07:59:40.312Z,996.47
2016-05-07T08:00:40.518Z,996.46
2016-05-07T08:01:40.333Z,996.5
2016-05-07T08:02:40.758Z,996.48
2016-05-07T08:03:40.354Z,996.52
2016-05-07T08:04:40.372Z,996.52
2016-05-07T08:05:40.374Z,996.53
2016-05-07T08:06:40.394Z,996.47
2016-05-07T08:07:40.396Z,996.51
2016-05-07T08:08:40.415Z,996.53
2016-05-07T08:09:40.432Z,996.52
2016-05-07T08:10:40.435Z,996.53
2016-05-07T08:11:40.454Z,996.52
2016-05-07T08:12:40.456Z,996.51
2016-05-07T08:13:40.693Z,996.49
2016-05-07T08:14:40.478Z,996.38
2016-05-07T08:15:40.495Z,996.45
2016-05-07T08:16:40.515Z,996.43
2016-05-07T08:17:40.548Z,996.49
2016-05-07T08:19:40.756Z,996.44
2016-05-07T08:20:40.556Z,996.42
2016-05-07T08:21:40.559Z,996.44
2016-05-07T08:22:40.578Z,996.48
2016-05-07T08:23:40.611Z,996.49
2016-05-07T08:24:40.597Z,996.52
2016-05-07T08:25:40.616Z,996.47
2016-05-07T08:26:40.651Z,996.47
2016-05-07T08:27:40.638Z,996.46
2016-05-07T08:28:40.640Z,996.49
2016-05-07T08:29:40.663Z,996.49
2016-05-07T08:30:40.708Z,996.46
2016-05-07T08:32:40.847Z,996.41
2016-05-07T08:33:40.877Z,996.45
2016-05-07T08:34:40.935Z,996.4
2016-05-07T08:35:41.156Z,996.41
2016-05-07T08:36:40.988Z,996.44
2016-05-07T08:37:41.006Z,996.41
2016-05-07T08:38:41.038Z,996.42
2016-05-07T08:39:41.071Z,996.39
2016-05-07T08:40:41.080Z,996.39
2016-05-07T08:41:41.104Z,996.37
2016-05-07T08:42:41.128Z,996.38
2016-05-07T08:43:41.136Z,996.41
2016-05-07T08:44:41.160Z,996.4
2016-05-07T08:45:41.165Z,996.36
2016-05-07T08:46:41.185Z,996.4
2016-05-07T08:47:41.221Z,996.38
2016-05-07T08:48:41.209Z,996.39
2016-05-07T08:49:41.231Z,996.39
2016-05-07T08:50:41.249Z,996.42
2016-05-07T08:51:41.252Z,996.41
2016-05-07T08:52:41.288Z,996.42
2016-05-07T08:53:41.275Z,996.4
2016-05-07T08:54:41.309Z,996.35
2016-05-07T08:55:41.312Z,996.35
2016-05-07T08:56:41.316Z,996.32
2016-05-07T08:57:41.350Z,996.31
2016-05-07T08:58:41.557Z,996.33
2016-05-07T08:59:41.356Z,996.33
2016-05-07T09:00:41.358Z,996.37
2016-05-07T09:01:41.377Z,996.34
2016-05-07T09:02:41.396Z,996.3
2016-05-07T09:03:41.398Z,996.37
2016-05-07T09:04:41.402Z,996.36
2016-05-07T09:05:41.435Z,996.3
2016-05-07T09:07:41.456Z,996.2
2016-05-07T09:08:41.474Z,996.34
2016-05-07T09:09:41.477Z,996.29
2016-05-07T09:10:41.480Z,996.29
2016-05-07T09:11:41.498Z,996.33
2016-05-07T09:12:41.516Z,996.35
2016-05-07T09:13:41.550Z,996.4
2016-05-07T09:14:41.788Z,996.43
2016-05-07T09:15:41.556Z,996.49
2016-05-07T09:16:41.559Z,996.45
2016-05-07T09:17:41.811Z,996.42
2016-05-07T09:18:41.595Z,996.41
2016-05-07T09:19:41.598Z,996.38
2016-05-07T09:20:41.617Z,996.35
2016-05-07T09:21:41.634Z,996.36
2016-05-07T09:22:41.636Z,996.43
2016-05-07T09:23:41.656Z,996.42
2016-05-07T09:24:41.877Z,996.43
2016-05-07T09:25:41.880Z,996.38
2016-05-07T09:26:41.695Z,996.36
2016-05-07T09:27:41.697Z,996.35
2016-05-07T09:28:41.747Z,996.31
2016-05-07T09:29:41.734Z,996.32
2016-05-07T09:30:41.752Z,996.33
2016-05-07T09:31:41.958Z,996.36
2016-05-07T09:32:41.773Z,996.4
2016-05-07T09:33:41.791Z,996.46
2016-05-07T09:34:41.794Z,996.43
2016-05-07T09:35:41.813Z,996.47
2016-05-07T09:36:41.816Z,996.38
2016-05-07T09:37:41.833Z,996.28
2016-05-07T09:38:41.852Z,996.25
2016-05-07T09:39:42.057Z,996.17
2016-05-07T09:40:41.873Z,996.18
2016-05-07T09:41:41.891Z,996.18
2016-05-07T09:42:41.910Z,996.18
2016-05-07T09:43:41.928Z,996.26
2016-05-07T09:44:41.931Z,996.28
2016-05-07T09:45:41.949Z,996.28
2016-05-07T09:46:41.952Z,996.21
2016-05-07T09:47:42.189Z,996.23
2016-05-07T09:48:42.004Z,996.26
2016-05-07T09:49:42.006Z,996.2
2016-05-07T09:50:42.009Z,996.11
2016-05-07T09:51:42.028Z,996.09
2016-05-07T09:52:42.046Z,996.09
2016-05-07T09:53:42.048Z,996.11
2016-05-07T09:54:42.067Z,996.13
2016-05-07T09:55:42.085Z,996.12
2016-05-07T09:56:42.104Z,996.08
2016-05-07T09:57:42.106Z,996.04
2016-05-07T09:58:42.125Z,996.06
2016-05-07T09:59:42.142Z,996.05
2016-05-07T10:00:42.161Z,996.08
2016-05-07T10:01:42.180Z,996.09
2016-05-07T10:02:42.198Z,996.07
2016-05-07T10:03:42.200Z,996.06
2016-05-07T10:04:42.219Z,995.99
2016-05-07T10:05:42.222Z,995.95
2016-05-07T10:06:42.240Z,995.98
2016-05-07T10:07:42.258Z,995.95
2016-05-07T10:08:42.277Z,995.87
2016-05-07T10:09:42.294Z,995.88
2016-05-07T10:10:42.313Z,995.91
2016-05-07T10:11:42.316Z,995.91
2016-05-07T10:12:42.318Z,995.91
2016-05-07T10:13:42.352Z,995.96
2016-05-07T10:14:42.574Z,995.97
2016-05-07T10:15:42.373Z,995.94
2016-05-07T10:16:42.407Z,995.94
2016-05-07T10:17:42.426Z,995.91
2016-05-07T10:18:42.413Z,995.92
2016-05-07T10:19:42.431Z,995.91
2016-05-07T10:20:42.449Z,995.84
2016-05-07T10:21:42.452Z,995.91
2016-05-07T10:22:42.470Z,995.88
2016-05-07T10:23:42.519Z,995.9
2016-05-07T10:24:42.506Z,995.89
2016-05-07T10:25:42.510Z,995.88
2016-05-07T10:26:42.559Z,995.83
2016-05-07T10:27:42.541Z,995.85
2016-05-07T10:28:42.560Z,995.88
2016-05-07T10:29:42.578Z,995.91
2016-05-07T10:30:42.596Z,995.89
2016-05-07T10:31:42.631Z,995.93
2016-05-07T10:32:42.617Z,995.88
2016-05-07T10:33:42.651Z,995.83
2016-05-07T10:34:42.653Z,995.85
2016-05-07T10:35:42.657Z,995.91
2016-05-07T10:37:42.693Z,995.87
2016-05-07T10:38:42.712Z,995.89
2016-05-07T10:39:42.746Z,995.87
2016-05-07T10:40:42.732Z,995.78
2016-05-07T10:41:42.751Z,995.76
2016-05-07T10:42:42.769Z,995.76
2016-05-07T10:43:42.788Z,995.75
2016-05-07T10:44:42.805Z,995.71
2016-05-07T10:45:42.808Z,995.73
2016-05-07T10:46:42.843Z,995.79
2016-05-07T10:47:42.845Z,995.78
2016-05-07T10:48:42.848Z,995.77
2016-05-07T10:49:43.101Z,995.77
2016-05-07T10:50:42.885Z,995.82
2016-05-07T10:51:43.137Z,995.88
2016-05-07T10:52:43.124Z,995.9
2016-05-07T10:53:42.924Z,995.99
2016-05-07T10:54:42.942Z,996.01
2016-05-07T10:55:42.960Z,996.14
2016-05-07T10:56:42.994Z,996.13
2016-05-07T10:57:42.998Z,996.1
2016-05-07T10:58:43.000Z,996.08
2016-05-07T10:59:43.017Z,996
2016-05-07T11:00:43.053Z,995.93
2016-05-07T11:01:43.055Z,995.83
2016-05-07T11:02:43.072Z,995.79
2016-05-07T11:03:43.075Z,995.72
2016-05-07T11:04:43.126Z,995.66
2016-05-07T11:05:43.112Z,995.66
2016-05-07T11:06:43.130Z,995.73
2016-05-07T11:07:43.150Z,995.71
2016-05-07T11:08:43.167Z,995.66
2016-05-07T11:09:43.169Z,995.69
2016-05-07T11:10:43.188Z,995.7
2016-05-07T11:11:43.207Z,995.71
2016-05-07T11:14:43.480Z,995.61
2016-05-07T11:16:43.298Z,995.53
2016-05-07T11:18:43.319Z,995.48
2016-05-07T11:19:43.322Z,995.56
2016-05-07T11:20:43.356Z,995.57
2016-05-07T11:21:43.359Z,995.58
2016-05-07T11:22:43.407Z,995.65
2016-05-07T11:23:43.379Z,995.62
2016-05-07T11:24:43.429Z,995.61
2016-05-07T11:25:43.432Z,995.65
2016-05-07T11:26:43.434Z,995.62
2016-05-07T11:27:43.468Z,995.62
2016-05-07T11:28:43.471Z,995.58
2016-05-07T11:30:43.508Z,995.56
2016-05-07T11:31:43.511Z,995.53
2016-05-07T11:32:43.559Z,995.54
2016-05-07T11:33:43.548Z,995.55
2016-05-07T11:34:43.565Z,995.51
2016-05-07T11:35:43.568Z,995.52
2016-05-07T11:36:43.586Z,995.57
2016-05-07T11:37:43.807Z,995.56
2016-05-07T11:38:43.623Z,995.55
2016-05-07T11:39:43.641Z,995.6
2016-05-07T11:40:43.644Z,995.65
2016-05-07T11:41:43.896Z,995.68
2016-05-07T11:42:43.697Z,995.76
2016-05-07T11:43:43.699Z,995.81
2016-05-07T11:44:43.732Z,995.83
2016-05-07T11:45:43.752Z,995.85
2016-05-07T11:46:43.738Z,995.79
2016-05-07T11:47:43.772Z,995.82
2016-05-07T11:48:43.774Z,995.75
2016-05-07T11:49:43.793Z,995.71
2016-05-07T11:50:43.812Z,995.68
2016-05-07T11:51:43.830Z,995.63
2016-05-07T11:52:43.848Z,995.57
2016-05-07T11:53:43.851Z,995.57
2016-05-07T11:54:43.885Z,995.42
2016-05-07T11:55:43.918Z,995.46
2016-05-07T11:56:43.906Z,995.46
2016-05-07T11:57:43.986Z,995.51
2016-05-07T11:58:43.943Z,995.56
2016-05-07T11:59:43.945Z,995.63
2016-05-07T12:00:43.979Z,995.67
2016-05-07T12:01:44.216Z,995.65
2016-05-07T12:02:44.000Z,995.6
2016-05-07T12:03:44.018Z,995.5
2016-05-07T12:04:44.036Z,995.42
2016-05-07T12:05:44.070Z,995.42
2016-05-07T12:06:44.105Z,995.49
2016-05-07T12:07:44.092Z,995.54
2016-05-07T12:08:44.094Z,995.59
2016-05-07T12:09:44.128Z,995.64
2016-05-07T12:10:44.131Z,995.66
2016-05-07T12:11:44.180Z,995.65
2016-05-07T12:12:44.402Z,995.66
2016-05-07T12:13:44.186Z,995.6
2016-05-07T12:14:44.204Z,995.53
2016-05-07T12:15:44.238Z,995.57
2016-05-07T12:16:44.241Z,995.52
2016-05-07T12:17:44.259Z,995.56
2016-05-07T12:18:44.277Z,995.53
2016-05-07T12:19:44.296Z,995.44
2016-05-07T12:20:44.455Z,995.35
2016-05-07T12:21:44.332Z,995.32
2016-05-07T12:22:44.335Z,995.22
2016-05-07T12:23:44.354Z,995.23
2016-05-07T12:24:44.371Z,995.19
2016-05-07T12:25:44.390Z,995.24
2016-05-07T12:27:44.427Z,995.45
2016-05-07T12:28:44.648Z,995.56
2016-05-07T12:29:44.463Z,995.53
2016-05-07T12:30:44.481Z,995.49
2016-05-07T12:31:44.500Z,995.5
2016-05-07T12:32:44.518Z,995.49
2016-05-07T12:33:44.536Z,995.48
2016-05-07T12:34:44.556Z,995.35
2016-05-07T12:35:44.572Z,995.38
2016-05-07T12:36:44.576Z,995.39
2016-05-07T12:37:44.609Z,995.27
2016-05-07T12:38:44.612Z,995.25
2016-05-07T12:39:44.646Z,995.25
2016-05-07T12:40:44.650Z,995.23
2016-05-07T12:41:44.667Z,995.14
2016-05-07T12:42:44.686Z,995.13
2016-05-07T12:43:44.719Z,995.14
2016-05-07T12:44:44.722Z,995.13
2016-05-07T12:45:44.991Z,995.05
2016-05-07T12:46:44.759Z,995.13
2016-05-07T12:47:44.777Z,995.12
2016-05-07T12:48:44.796Z,995.06
2016-05-07T12:49:44.814Z,995.09
2016-05-07T12:50:45.035Z,995.08